createdAt,value
2018-12-22T00:01:00.825Z,51.10
2018-12-22T00:03:28.442Z,51.10
2018-12-22T00:05:55.999Z,51.10
2018-12-22T00:08:23.492Z,51.10
2018-12-22T00:10:51.118Z,51.10
2018-12-22T00:13:18.595Z,51.10
2018-12-22T00:15:46.079Z,51.10
2018-12-22T00:18:13.659Z,51.20
2018-12-22T00:20:41.194Z,51.20
2018-12-22T00:23:08.707Z,51.10
2018-12-22T00:25:36.242Z,51.20
2018-12-22T00:28:03.827Z,51.20
2018-12-22T00:30:32.179Z,51.00
2018-12-22T00:32:59.768Z,51.00
2018-12-22T00:35:27.308Z,51.10
2018-12-22T00:37:54.791Z,51.00
2018-12-22T00:40:22.331Z,51.10
2018-12-22T00:42:49.890Z,51.20
2018-12-22T00:45:17.373Z,51.20
2018-12-22T00:47:45.012Z,51.20
2018-12-22T00:50:12.496Z,51.10
2018-12-22T00:52:39.974Z,51.10
2018-12-22T00:55:07.515Z,51.00
2018-12-22T00:57:35.035Z,51.00
2018-12-22T01:00:02.787Z,51.10
2018-12-22T01:02:30.451Z,51.00
2018-12-22T01:04:58.127Z,51.00
2018-12-22T01:07:25.606Z,50.90
2018-12-22T01:09:53.148Z,51.10
2018-12-22T01:12:20.689Z,51.10
2018-12-22T01:14:48.177Z,51.10
2018-12-22T01:17:15.784Z,51.10
2018-12-22T01:19:43.372Z,51.10
2018-12-22T01:22:10.936Z,51.10
2018-12-22T01:24:38.479Z,51.20
2018-12-22T01:27:06.015Z,51.10
2018-12-22T01:29:33.609Z,51.20
2018-12-22T01:32:02.019Z,51.10
2018-12-22T01:34:29.539Z,51.20
2018-12-22T01:36:57.023Z,51.20
2018-12-22T01:39:24.660Z,51.10
2018-12-22T01:41:52.145Z,51.10
2018-12-22T01:44:19.625Z,51.20
2018-12-22T01:46:47.166Z,51.20
2018-12-22T01:49:14.692Z,51.20
2018-12-22T01:51:42.243Z,51.20
2018-12-22T01:54:09.810Z,51.20
2018-12-22T01:56:37.291Z,51.20
2018-12-22T01:59:04.823Z,51.10
2018-12-22T02:01:32.383Z,51.20
2018-12-22T02:03:59.940Z,51.20
2018-12-22T02:06:27.499Z,51.30
2018-12-22T02:08:55.155Z,51.30
2018-12-22T02:11:22.715Z,51.20
2018-12-22T02:13:50.277Z,51.30
2018-12-22T02:16:17.831Z,51.30
2018-12-22T02:18:45.392Z,51.20
2018-12-22T02:21:12.953Z,51.40
2018-12-22T02:23:40.614Z,51.30
2018-12-22T02:26:08.167Z,51.30
2018-12-22T02:28:35.727Z,51.40
2018-12-22T02:31:03.455Z,51.30
2018-12-22T02:33:32.362Z,51.30
2018-12-22T02:35:59.843Z,51.40
2018-12-22T02:38:27.432Z,51.40
2018-12-22T02:40:54.919Z,51.40
2018-12-22T02:43:22.398Z,51.30
2018-12-22T02:45:49.980Z,51.40
2018-12-22T02:48:17.529Z,51.40
2018-12-22T02:50:45.014Z,51.30
2018-12-22T02:53:12.540Z,51.40
2018-12-22T02:55:40.101Z,51.40
2018-12-22T02:58:07.662Z,51.50
2018-12-22T03:00:35.403Z,51.50
2018-12-22T03:03:02.981Z,51.50
2018-12-22T03:05:30.463Z,51.50
2018-12-22T03:07:59.390Z,51.40
2018-12-22T03:10:27.187Z,51.40
2018-12-22T03:12:54.756Z,51.50
2018-12-22T03:15:22.413Z,51.40
2018-12-22T03:17:49.974Z,51.50
2018-12-22T03:20:17.535Z,51.50
2018-12-22T03:22:45.196Z,51.50
2018-12-22T03:25:12.678Z,51.30
2018-12-22T03:27:40.275Z,51.50
2018-12-22T03:30:08.191Z,51.40
2018-12-22T03:32:35.838Z,51.40
2018-12-22T03:35:05.007Z,51.50
2018-12-22T03:37:32.520Z,51.50
2018-12-22T03:40:00.040Z,51.50
2018-12-22T03:42:27.528Z,51.50
2018-12-22T03:44:55.057Z,51.60
2018-12-22T03:47:22.610Z,51.60
2018-12-22T03:49:50.177Z,51.50
2018-12-22T03:52:17.739Z,51.70
2018-12-22T03:54:45.223Z,51.70
2018-12-22T03:57:12.750Z,51.60
2018-12-22T03:59:40.280Z,51.70
2018-12-22T04:02:07.769Z,51.70
2018-12-22T04:04:35.348Z,51.80
2018-12-22T04:07:03.078Z,51.80
2018-12-22T04:09:30.643Z,51.80
2018-12-22T04:11:58.202Z,51.70
2018-12-22T04:14:25.766Z,51.50
2018-12-22T04:16:53.322Z,51.80
2018-12-22T04:19:20.880Z,51.60
2018-12-22T04:21:48.435Z,51.70
2018-12-22T04:24:15.915Z,51.60
2018-12-22T04:26:43.400Z,51.70
2018-12-22T04:29:10.982Z,51.70
2018-12-22T04:31:38.536Z,51.70
2018-12-22T04:34:06.024Z,51.80
2018-12-22T04:36:35.259Z,51.80
2018-12-22T04:39:03.513Z,51.80
2018-12-22T04:41:31.052Z,51.80
2018-12-22T04:43:58.611Z,51.80
2018-12-22T04:46:26.169Z,51.80
2018-12-22T04:48:53.723Z,51.80
2018-12-22T04:51:21.289Z,51.80
2018-12-22T04:53:48.850Z,51.90
2018-12-22T04:56:16.331Z,51.90
2018-12-22T04:58:43.965Z,52.00
2018-12-22T05:01:11.451Z,52.00
2018-12-22T05:03:38.980Z,51.80
2018-12-22T05:06:06.531Z,52.10
2018-12-22T05:08:34.015Z,52.10
2018-12-22T05:11:01.549Z,52.10
2018-12-22T05:13:29.217Z,52.10
2018-12-22T05:15:56.774Z,52.00
2018-12-22T05:18:24.263Z,52.00
2018-12-22T05:20:51.889Z,52.00
2018-12-22T05:23:19.451Z,52.10
2018-12-22T05:25:47.007Z,52.00
2018-12-22T05:28:14.659Z,52.10
2018-12-22T05:30:42.225Z,52.10
2018-12-22T05:33:09.775Z,52.10
2018-12-22T05:35:37.443Z,52.10
2018-12-22T05:38:06.521Z,52.20
2018-12-22T05:40:34.009Z,52.10
2018-12-22T05:43:01.524Z,52.10
2018-12-22T05:45:29.009Z,52.00
2018-12-22T05:47:56.569Z,52.10
2018-12-22T05:50:24.172Z,52.00
2018-12-22T05:52:51.658Z,52.00
2018-12-22T05:55:19.151Z,52.00
2018-12-22T05:57:46.748Z,52.10
2018-12-22T06:00:14.226Z,52.00
2018-12-22T06:02:41.784Z,52.00
2018-12-22T06:05:10.303Z,52.10
2018-12-22T06:07:37.852Z,52.10
2018-12-22T06:10:06.759Z,52.10
2018-12-22T06:12:34.405Z,52.10
2018-12-22T06:15:01.966Z,52.20
2018-12-22T06:17:29.525Z,52.20
2018-12-22T06:19:57.178Z,52.20
2018-12-22T06:22:24.742Z,52.20
2018-12-22T06:24:52.300Z,52.30
2018-12-22T06:27:19.858Z,52.30
2018-12-22T06:29:47.417Z,52.30
2018-12-22T06:32:14.976Z,52.30
2018-12-22T06:34:42.526Z,52.30
2018-12-22T06:37:10.067Z,52.30
2018-12-22T06:39:39.162Z,52.30
2018-12-22T06:42:06.715Z,52.50
2018-12-22T06:44:34.203Z,52.50
2018-12-22T06:47:01.756Z,52.50
2018-12-22T06:49:29.316Z,52.40
2018-12-22T06:51:56.878Z,52.40
2018-12-22T06:54:24.359Z,52.40
2018-12-22T06:56:51.952Z,52.40
2018-12-22T06:59:19.525Z,52.50
2018-12-22T07:01:47.111Z,52.50
2018-12-22T07:04:14.683Z,53.00
2018-12-22T07:06:42.224Z,52.50
2018-12-22T07:09:09.703Z,52.50
2018-12-22T07:11:37.345Z,52.50
2018-12-22T07:14:04.899Z,53.40
2018-12-22T07:16:32.392Z,53.30
2018-12-22T07:19:00.016Z,53.20
2018-12-22T07:21:27.575Z,53.20
2018-12-22T07:23:55.067Z,52.90
2018-12-22T07:26:22.603Z,52.90
2018-12-22T07:28:50.155Z,52.80
2018-12-22T07:31:17.713Z,52.70
2018-12-22T07:33:45.264Z,52.60
2018-12-22T07:36:12.823Z,52.60
2018-12-22T07:38:40.386Z,52.60
2018-12-22T07:41:09.174Z,52.60
2018-12-22T07:43:36.732Z,52.60
2018-12-22T07:46:04.293Z,52.60
2018-12-22T07:48:31.848Z,52.50
2018-12-22T07:50:59.329Z,52.50
2018-12-22T07:53:26.816Z,52.40
2018-12-22T07:55:54.350Z,52.30
2018-12-22T07:58:21.835Z,52.60
2018-12-22T08:00:49.329Z,53.00
2018-12-22T08:03:16.887Z,53.20
2018-12-22T08:05:44.450Z,53.40
2018-12-22T08:08:12.006Z,53.50
2018-12-22T08:10:39.669Z,53.60
2018-12-22T08:13:07.228Z,53.60
2018-12-22T08:15:34.715Z,53.50
2018-12-22T08:18:02.348Z,53.50
2018-12-22T08:20:29.904Z,53.50
2018-12-22T08:22:57.387Z,54.20
2018-12-22T08:25:24.995Z,53.60
2018-12-22T08:27:52.491Z,53.60
2018-12-22T08:30:19.975Z,53.60
2018-12-22T12:15:50.576Z,52.80
2018-12-22T12:20:26.475Z,53.00
2018-12-22T12:22:54.379Z,53.10
2018-12-22T12:25:21.991Z,54.20
2018-12-22T12:27:49.484Z,55.10
2018-12-22T12:40:02.255Z,64.70
2018-12-22T12:42:29.765Z,53.60
2018-12-22T12:46:29.642Z,57.30
2018-12-22T12:48:57.137Z,60.80
2018-12-22T12:51:24.650Z,63.90
2018-12-22T12:53:52.208Z,67.20
2018-12-22T12:56:19.712Z,69.20
2018-12-22T12:58:47.215Z,70.50
2018-12-22T13:01:14.808Z,72.10
2018-12-22T13:03:42.306Z,72.60
2018-12-22T13:06:09.803Z,73.50
2018-12-22T13:08:37.487Z,73.70
2018-12-22T13:11:05.012Z,73.60
2018-12-22T13:15:11.791Z,73.80
2018-12-22T13:17:39.315Z,74.30
2018-12-22T13:20:10.235Z,74.60
2018-12-22T13:22:37.732Z,74.40
2018-12-22T13:25:05.957Z,74.40
2018-12-22T13:27:33.510Z,74.20
2018-12-22T13:30:01.007Z,74.40
2018-12-22T13:32:28.507Z,74.60
2018-12-22T13:34:56.036Z,74.90
2018-12-22T13:37:23.538Z,75.10
2018-12-22T13:39:51.166Z,75.80
2018-12-22T13:42:18.918Z,76.50
2018-12-22T13:44:46.418Z,77.40
2018-12-22T13:47:13.918Z,77.80
2018-12-22T13:49:41.552Z,78.60
2018-12-22T13:52:09.127Z,79.60
2018-12-22T13:54:36.629Z,80.50
2018-12-22T13:57:04.191Z,81.60
2018-12-22T13:59:31.703Z,82.10
2018-12-22T14:01:59.238Z,82.30
2018-12-22T14:04:26.827Z,82.40
2018-12-22T14:06:54.324Z,82.00
2018-12-22T14:09:21.831Z,81.00
2018-12-22T14:11:49.436Z,81.00
2018-12-22T14:14:18.336Z,80.50
2018-12-22T14:16:46.022Z,80.30
2018-12-22T14:19:13.711Z,80.20
2018-12-22T14:21:41.255Z,80.20
2018-12-22T14:24:14.607Z,79.60
2018-12-22T14:26:42.105Z,79.60
2018-12-22T14:29:09.607Z,79.30
2018-12-22T14:31:37.163Z,79.00
2018-12-22T14:34:11.392Z,78.90
2018-12-22T14:36:39.012Z,78.70
2018-12-22T14:39:07.844Z,79.10
2018-12-22T14:41:35.339Z,78.90
2018-12-22T14:44:02.889Z,79.30
2018-12-22T14:46:30.397Z,79.20
2018-12-22T14:48:57.895Z,79.20
2018-12-22T14:51:25.445Z,79.30
2018-12-22T14:53:52.940Z,78.90
2018-12-22T14:56:28.069Z,78.70
2018-12-22T14:58:55.566Z,78.30
2018-12-22T15:01:23.063Z,78.40
2018-12-22T15:03:50.671Z,79.00
2018-12-22T15:06:18.176Z,79.40
2018-12-22T15:08:45.761Z,79.20
2018-12-22T15:11:14.156Z,79.40
2018-12-22T15:13:41.664Z,79.00
2018-12-22T15:16:09.160Z,78.40
2018-12-22T15:18:36.713Z,78.20
2018-12-22T15:21:04.264Z,77.70
2018-12-22T15:23:31.755Z,77.40
2018-12-22T15:25:59.311Z,77.40
2018-12-22T15:28:26.800Z,77.00
2018-12-22T15:30:54.298Z,76.90
2018-12-22T15:33:21.851Z,77.10
2018-12-22T15:35:49.347Z,76.80
2018-12-22T15:38:16.848Z,77.00
2018-12-22T15:40:44.396Z,76.80
2018-12-22T15:43:11.896Z,76.80
2018-12-22T15:45:39.397Z,77.10
2018-12-22T15:48:06.956Z,77.80
2018-12-22T15:50:38.179Z,78.20
2018-12-22T15:53:05.683Z,79.20
2018-12-22T15:55:33.180Z,79.40
2018-12-22T15:58:00.675Z,80.20
2018-12-22T16:00:44.634Z,81.30
2018-12-22T16:03:12.144Z,83.00
2018-12-22T16:05:39.659Z,83.80
2018-12-22T16:08:07.209Z,84.40
2018-12-22T16:10:34.695Z,85.20
2018-12-22T16:13:02.196Z,87.10
2018-12-22T16:15:29.815Z,85.70
2018-12-22T16:17:57.308Z,86.20
2018-12-22T16:20:24.799Z,88.10
2018-12-22T16:22:56.754Z,89.50
2018-12-22T16:25:24.330Z,90.20
2018-12-22T16:27:55.659Z,90.80
2018-12-22T16:30:28.016Z,91.10
2018-12-22T16:33:01.585Z,91.00
2018-12-22T16:35:25.160Z,91.20
2018-12-22T16:37:52.671Z,91.10
2018-12-22T16:40:20.352Z,90.80
2018-12-22T16:42:49.017Z,90.60
2018-12-22T16:45:16.520Z,90.30
2018-12-22T16:47:44.084Z,90.50
2018-12-22T16:50:15.239Z,91.10
2018-12-22T16:52:42.773Z,90.80
2018-12-22T16:55:13.005Z,90.60
2018-12-22T16:57:58.541Z,90.10
2018-12-22T17:00:31.361Z,90.00
2018-12-22T17:02:58.888Z,89.30
2018-12-22T17:05:26.391Z,88.80
2018-12-22T17:07:53.912Z,88.10
2018-12-22T17:10:21.619Z,88.60
2018-12-22T17:12:52.088Z,89.00
2018-12-22T17:15:22.160Z,88.90
2018-12-22T17:17:49.164Z,88.80
2018-12-22T17:20:22.714Z,89.30
2018-12-22T17:23:01.693Z,89.00
2018-12-22T17:25:30.852Z,89.50
2018-12-22T17:27:58.363Z,88.40
2018-12-22T17:30:25.879Z,88.90
2018-12-22T17:32:53.441Z,88.30
2018-12-22T17:35:20.955Z,88.80
2018-12-22T17:37:48.891Z,88.50
2018-12-22T17:40:16.507Z,88.40
2018-12-22T17:42:44.073Z,88.90
2018-12-22T17:45:11.625Z,88.70
2018-12-22T17:47:40.270Z,88.30
2018-12-22T17:50:09.036Z,87.90
2018-12-22T17:52:36.540Z,88.40
2018-12-22T17:55:07.627Z,87.80
2018-12-22T17:57:35.128Z,86.90
2018-12-22T18:00:02.857Z,88.10
2018-12-22T18:02:30.415Z,87.90
2018-12-22T18:04:57.915Z,88.00
2018-12-22T18:07:25.407Z,88.50
2018-12-22T18:09:53.008Z,88.50
2018-12-22T18:12:20.511Z,88.00
2018-12-22T18:14:48.012Z,87.80
2018-12-22T18:17:15.743Z,87.40
2018-12-22T18:19:43.336Z,87.00
2018-12-22T18:22:10.855Z,87.30
2018-12-22T18:24:38.412Z,87.80
2018-12-22T18:27:05.923Z,87.80
2018-12-22T18:29:33.420Z,87.20
2018-12-22T18:32:00.996Z,87.20
2018-12-22T18:34:28.492Z,88.20
2018-12-22T18:36:55.987Z,87.10
2018-12-22T18:39:24.169Z,86.50
2018-12-22T18:41:51.668Z,87.30
2018-12-22T18:44:19.196Z,86.60
2018-12-22T18:46:46.777Z,86.30
2018-12-22T18:49:14.314Z,86.50
2018-12-22T18:51:41.913Z,85.70
2018-12-22T18:54:22.182Z,85.60
2018-12-22T18:56:53.488Z,85.70
2018-12-22T18:59:21.440Z,85.30
2018-12-22T19:01:49.020Z,85.30
2018-12-22T19:05:51.655Z,85.00
2018-12-22T19:09:16.811Z,84.40
2018-12-22T19:12:39.374Z,84.50
2018-12-22T19:16:01.939Z,85.00
2018-12-22T19:19:24.544Z,85.40
2018-12-22T19:22:47.042Z,85.00
2018-12-22T19:26:10.373Z,85.50
2018-12-22T19:29:32.871Z,85.20
2018-12-22T19:32:55.458Z,84.60
2018-12-22T19:36:17.954Z,82.70
2018-12-22T19:39:40.569Z,83.10
2018-12-22T19:43:03.072Z,82.80
2018-12-22T19:46:25.623Z,83.80
2018-12-22T19:49:48.117Z,83.90
2018-12-22T19:53:10.667Z,83.80
2018-12-22T19:56:33.156Z,82.40
2018-12-22T19:59:55.701Z,82.70
2018-12-22T20:03:18.195Z,82.70
2018-12-22T20:06:40.792Z,83.20
2018-12-22T20:10:03.458Z,83.20
2018-12-22T20:13:25.972Z,83.20
2018-12-22T20:16:48.468Z,83.40
2018-12-22T20:20:11.174Z,83.10
2018-12-22T20:23:33.673Z,83.70
2018-12-22T20:26:56.263Z,84.20
2018-12-22T20:30:18.754Z,84.20
2018-12-22T20:33:41.300Z,84.80
2018-12-22T20:37:03.801Z,84.60
2018-12-22T20:40:26.546Z,84.70
2018-12-22T20:43:49.035Z,84.10
2018-12-22T20:47:11.626Z,84.10
2018-12-22T20:50:34.119Z,84.10
2018-12-22T20:53:56.664Z,83.90
2018-12-22T20:57:19.156Z,83.60
2018-12-22T21:00:41.764Z,83.30
2018-12-22T21:04:04.255Z,84.10
2018-12-22T21:10:58.619Z,84.40
2018-12-22T21:14:21.210Z,84.70
2018-12-22T21:17:43.705Z,84.70
2018-12-22T21:21:06.496Z,84.70
2018-12-22T21:24:28.991Z,84.90
2018-12-22T21:27:53.167Z,85.00
2018-12-22T21:31:15.652Z,84.70
2018-12-22T21:34:38.199Z,84.90
2018-12-22T21:41:29.722Z,84.80
2018-12-22T21:44:52.272Z,85.00
2018-12-22T21:48:14.828Z,84.50
2018-12-22T21:51:37.316Z,84.70
2018-12-22T21:54:59.868Z,84.90
2018-12-22T21:58:22.360Z,85.10
2018-12-22T22:01:44.972Z,84.90
2018-12-22T22:05:07.460Z,85.00
2018-12-22T22:08:30.051Z,84.40
2018-12-22T22:11:52.543Z,84.90
2018-12-22T22:15:15.130Z,84.80
2018-12-22T22:18:37.627Z,84.80
2018-12-22T22:22:00.241Z,84.80
2018-12-22T22:25:22.736Z,84.60
2018-12-22T22:28:46.599Z,84.90
2018-12-22T22:32:09.082Z,84.80
2018-12-22T22:35:31.856Z,84.20
2018-12-22T22:38:54.354Z,84.10
2018-12-22T22:42:16.902Z,84.20
2018-12-22T22:45:39.515Z,83.60
2018-12-22T22:49:02.108Z,83.60
2018-12-22T22:52:24.599Z,83.60
2018-12-22T22:55:47.141Z,83.90
2018-12-22T22:59:09.635Z,83.40
2018-12-22T23:02:32.185Z,83.50
2018-12-22T23:05:54.670Z,83.90
2018-12-22T23:09:17.506Z,84.10
2018-12-22T23:12:39.995Z,83.70
2018-12-22T23:16:02.537Z,83.90
2018-12-22T23:19:25.024Z,83.80
2018-12-22T23:22:47.639Z,84.20
2018-12-22T23:26:10.122Z,84.20
2018-12-22T23:29:33.484Z,84.20
2018-12-22T23:32:55.971Z,83.80
2018-12-22T23:36:18.584Z,85.10
2018-12-22T23:39:41.079Z,85.00
2018-12-22T23:43:03.675Z,85.70
2018-12-22T23:46:26.165Z,85.80
2018-12-22T23:49:48.922Z,86.80
2018-12-22T23:56:59.707Z,87.30
